createdAt,value
2016-03-31T00:00:57.507Z,96.94
2016-03-31T00:02:00.540Z,97.27
2016-03-31T00:02:57.528Z,96.41
2016-03-31T00:03:57.499Z,96.32
2016-03-31T00:04:57.534Z,95.84
2016-03-31T00:05:57.520Z,96.22
2016-03-31T00:06:57.506Z,96.32
2016-03-31T00:07:57.509Z,96.03
2016-03-31T00:08:57.512Z,96.22
2016-03-31T00:09:57.531Z,96.22
2016-03-31T00:10:57.517Z,95.75
2016-03-31T00:11:57.520Z,96.32
2016-03-31T00:12:57.523Z,96.32
2016-03-31T00:13:57.526Z,96.32
2016-03-31T00:14:57.561Z,96.7
2016-03-31T00:15:57.531Z,96.8
2016-03-31T00:16:57.533Z,96.65
2016-03-31T00:17:57.520Z,96.84
2016-03-31T00:18:57.522Z,97.41
2016-03-31T00:19:57.535Z,97.6
2016-03-31T00:20:57.538Z,97.22
2016-03-31T00:21:57.540Z,97.79
2016-03-31T00:22:57.542Z,97.6
2016-03-31T00:23:57.546Z,97.79
2016-03-31T00:24:57.548Z,97.79
2016-03-31T00:25:57.535Z,97.51
2016-03-31T00:26:57.569Z,97.7
2016-03-31T00:27:57.540Z,97.79
2016-03-31T00:28:57.543Z,97.7
2016-03-31T00:29:57.530Z,97.7
2016-03-31T00:30:57.381Z,97.31
2016-03-31T00:31:57.588Z,97.22
2016-03-31T00:32:57.531Z,97.31
2016-03-31T00:33:57.533Z,97.6
2016-03-31T00:34:57.551Z,98.18
2016-03-31T00:35:57.554Z,98.36
2016-03-31T00:36:57.542Z,98.08
2016-03-31T00:37:57.559Z,98.08
2016-03-31T00:38:57.546Z,98.27
2016-03-31T00:39:57.550Z,97.51
2016-03-31T00:40:57.552Z,98.36
2016-03-31T00:41:57.555Z,97.41
2016-03-31T00:42:57.558Z,97.51
2016-03-31T00:43:57.544Z,97.56
2016-03-31T00:44:57.547Z,97.99
2016-03-31T00:45:57.550Z,97.27
2016-03-31T00:46:57.552Z,97.84
2016-03-31T00:47:57.555Z,97.08
2016-03-31T00:48:57.574Z,97.08
2016-03-31T00:49:57.591Z,96.89
2016-03-31T00:50:57.564Z,97.08
2016-03-31T00:51:57.566Z,96.22
2016-03-31T00:52:57.569Z,96.12
2016-03-31T00:53:57.571Z,96.32
2016-03-31T00:54:57.574Z,96.8
2016-03-31T00:55:57.560Z,96.6
2016-03-31T00:56:57.579Z,95.94
2016-03-31T00:57:57.582Z,96.22
2016-03-31T00:58:57.569Z,96.03
2016-03-31T00:59:57.587Z,96.22
2016-03-31T01:00:57.574Z,96.12
2016-03-31T01:01:57.609Z,96.12
2016-03-31T01:02:57.579Z,96.22
2016-03-31T01:03:57.582Z,96.22
2016-03-31T01:04:57.585Z,96.41
2016-03-31T01:05:57.587Z,96.03
2016-03-31T01:06:57.590Z,96.32
2016-03-31T01:07:57.593Z,96.22
2016-03-31T01:08:57.595Z,96.22
2016-03-31T01:09:57.599Z,96.22
2016-03-31T01:10:57.570Z,96.03
2016-03-31T01:11:57.589Z,96.22
2016-03-31T01:12:57.606Z,96.32
2016-03-31T01:13:57.594Z,96.03
2016-03-31T01:14:57.597Z,95.75
2016-03-31T01:15:57.614Z,96.12
2016-03-31T01:16:57.602Z,96.03
2016-03-31T01:17:57.605Z,95.84
2016-03-31T01:18:57.607Z,96.41
2016-03-31T01:19:57.610Z,96.7
2016-03-31T01:20:57.612Z,96.41
2016-03-31T01:21:57.802Z,96.6
2016-03-31T01:22:57.618Z,96.51
2016-03-31T01:23:57.621Z,96.41
2016-03-31T01:24:57.623Z,96.89
2016-03-31T01:25:57.610Z,96.7
2016-03-31T01:26:57.628Z,96.94
2016-03-31T01:27:57.631Z,96.84
2016-03-31T01:28:57.618Z,97.41
2016-03-31T01:29:57.636Z,97.6
2016-03-31T01:30:57.623Z,97.41
2016-03-31T01:31:57.626Z,97.89
2016-03-31T01:32:57.629Z,97.6
2016-03-31T01:33:57.647Z,97.31
2016-03-31T01:34:57.618Z,98.36
2016-03-31T01:35:57.621Z,98.08
2016-03-31T01:36:57.623Z,98.08
2016-03-31T01:37:57.642Z,97.79
2016-03-31T01:38:57.630Z,98.08
2016-03-31T01:39:57.632Z,97.7
2016-03-31T01:40:57.634Z,98.27
2016-03-31T01:41:57.623Z,97.99
2016-03-31T01:42:57.656Z,98.27
2016-03-31T01:43:57.659Z,97.99
2016-03-31T01:44:57.645Z,98.55
2016-03-31T01:45:57.648Z,98.08
2016-03-31T01:46:57.620Z,98.84
2016-03-31T01:47:57.653Z,98.27
2016-03-31T01:48:57.641Z,98.18
2016-03-31T01:49:57.659Z,98.84
2016-03-31T01:50:57.630Z,98.94
2016-03-31T01:51:57.649Z,99.13
2016-03-31T01:52:57.652Z,99.13
2016-03-31T01:53:57.654Z,99.13
2016-03-31T01:54:57.657Z,99.13
2016-03-31T01:55:57.644Z,99.13
2016-03-31T01:56:57.709Z,98.74
2016-03-31T01:57:57.649Z,99.03
2016-03-31T01:58:57.668Z,99.03
2016-03-31T01:59:57.671Z,98.94
2016-03-31T02:00:57.673Z,98.74
2016-03-31T02:01:57.660Z,99.55
2016-03-31T02:02:57.663Z,98.84
2016-03-31T02:03:57.650Z,99.41
2016-03-31T02:04:57.668Z,99.69
2016-03-31T02:05:57.656Z,99.46
2016-03-31T02:06:57.658Z,98.94
2016-03-31T02:07:57.654Z,98.74
2016-03-31T02:08:57.672Z,99.22
2016-03-31T02:09:57.674Z,98.79
2016-03-31T02:10:57.678Z,98.65
2016-03-31T02:11:57.649Z,98.94
2016-03-31T02:12:57.668Z,99.03
2016-03-31T02:13:57.670Z,98.69
2016-03-31T02:14:57.688Z,98.88
2016-03-31T02:15:57.659Z,98.98
2016-03-31T02:16:57.678Z,99.17
2016-03-31T02:17:57.668Z,98.69
2016-03-31T02:18:57.671Z,98.69
2016-03-31T02:19:57.690Z,98.55
2016-03-31T02:20:57.692Z,98.79
2016-03-31T02:21:57.679Z,98.88
2016-03-31T02:22:57.681Z,99.03
2016-03-31T02:23:57.684Z,98.79
2016-03-31T02:24:57.670Z,98.79
2016-03-31T02:25:57.673Z,98.5
2016-03-31T02:26:57.661Z,98.84
2016-03-31T02:27:57.694Z,98.41
2016-03-31T02:28:57.681Z,98.84
2016-03-31T02:29:57.684Z,99.22
2016-03-31T02:30:57.702Z,98.65
2016-03-31T02:31:57.689Z,98.94
2016-03-31T02:32:57.677Z,98.94
2016-03-31T02:33:57.680Z,98.74
2016-03-31T02:34:57.682Z,98.79
2016-03-31T02:35:57.700Z,99.13
2016-03-31T02:36:57.703Z,98.84
2016-03-31T02:37:57.674Z,98.46
2016-03-31T02:38:57.693Z,99.13
2016-03-31T02:39:57.696Z,98.65
2016-03-31T02:40:57.698Z,98.74
2016-03-31T02:41:57.686Z,98.27
2016-03-31T02:42:57.704Z,98.27
2016-03-31T02:43:57.722Z,98.36
2016-03-31T02:44:57.693Z,98.08
2016-03-31T02:45:57.713Z,97.41
2016-03-31T02:46:57.699Z,97.51
2016-03-31T02:47:57.701Z,97.22
2016-03-31T02:48:57.704Z,97.6
2016-03-31T02:49:57.723Z,97.03
2016-03-31T02:51:00.709Z,96.65
2016-03-31T02:51:57.713Z,96.55
2016-03-31T02:52:57.715Z,96.65
2016-03-31T02:53:57.703Z,96.84
2016-03-31T02:54:57.705Z,97.03
2016-03-31T02:55:57.723Z,97.41
2016-03-31T02:56:57.726Z,97.79
2016-03-31T02:57:57.744Z,97.41
2016-03-31T02:58:57.731Z,97.36
2016-03-31T02:59:57.719Z,97.99
2016-03-31T03:00:57.736Z,97.6
2016-03-31T03:01:57.725Z,97.6
2016-03-31T03:03:00.727Z,97.27
2016-03-31T03:03:57.730Z,98.32
2016-03-31T03:04:57.716Z,98.03
2016-03-31T03:05:57.735Z,97.79
2016-03-31T03:06:57.706Z,97.74
2016-03-31T03:07:57.698Z,98.13
2016-03-31T03:08:57.706Z,97.74
2016-03-31T03:09:57.708Z,98.32
2016-03-31T03:10:57.697Z,97.93
2016-03-31T03:11:57.714Z,98.32
2016-03-31T03:12:57.702Z,98.13
2016-03-31T03:13:57.705Z,97.93
2016-03-31T03:14:57.707Z,98.03
2016-03-31T03:15:57.725Z,98.22
2016-03-31T03:16:57.697Z,98.32
2016-03-31T03:17:57.716Z,98.13
2016-03-31T03:18:57.702Z,98.32
2016-03-31T03:19:57.720Z,98.79
2016-03-31T03:20:57.708Z,98.32
2016-03-31T03:21:57.694Z,98.32
2016-03-31T03:22:57.729Z,98.5
2016-03-31T03:23:57.700Z,98.13
2016-03-31T03:24:57.718Z,98.22
2016-03-31T03:25:57.721Z,97.93
2016-03-31T03:26:57.739Z,98.79
2016-03-31T03:27:57.711Z,98.79
2016-03-31T03:28:57.713Z,98.79
2016-03-31T03:29:57.700Z,98.6
2016-03-31T03:30:57.704Z,98.6
2016-03-31T03:31:57.721Z,99.46
2016-03-31T03:32:57.709Z,98.69
2016-03-31T03:33:57.727Z,99.46
2016-03-31T03:34:57.714Z,98.98
2016-03-31T03:35:57.716Z,98.69
2016-03-31T03:36:57.703Z,98.88
2016-03-31T03:37:57.722Z,99.55
2016-03-31T03:38:57.724Z,98.79
2016-03-31T03:39:57.727Z,98.69
2016-03-31T03:40:57.730Z,98.88
2016-03-31T03:41:57.717Z,99.65
2016-03-31T03:42:57.719Z,99.55
2016-03-31T03:43:57.708Z,99.55
2016-03-31T03:44:57.725Z,99.55
2016-03-31T03:45:57.696Z,99.31
2016-03-31T03:46:57.747Z,99.5
2016-03-31T03:47:57.718Z,99.22
2016-03-31T03:48:57.705Z,99.6
2016-03-31T03:49:57.769Z,99.31
2016-03-31T03:50:57.741Z,99.22
2016-03-31T03:51:57.729Z,99.41
2016-03-31T03:52:57.700Z,99.99
2016-03-31T03:53:57.703Z,99.41
2016-03-31T03:54:57.737Z,99.98
2016-03-31T03:55:57.707Z,99.88
2016-03-31T03:56:57.711Z,99.41
2016-03-31T03:57:57.729Z,99.5
2016-03-31T03:58:57.701Z,99.6
2016-03-31T03:59:57.734Z,99.12
2016-03-31T04:00:57.721Z,99.99
2016-03-31T04:01:57.723Z,99.99
2016-03-31T04:02:57.711Z,99.31
2016-03-31T04:03:57.714Z,99.31
2016-03-31T04:04:57.732Z,99.41
2016-03-31T04:05:57.734Z,99.99
2016-03-31T04:06:57.722Z,99.98
2016-03-31T04:07:57.709Z,99.88
2016-03-31T04:08:57.711Z,99.6
2016-03-31T04:09:57.714Z,99.69
2016-03-31T04:10:57.717Z,99.99
2016-03-31T04:11:57.722Z,99.99
2016-03-31T04:12:57.978Z,99.99
2016-03-31T04:13:57.743Z,99.99
2016-03-31T04:14:57.800Z,99.99
2016-03-31T04:15:57.727Z,99.79
2016-03-31T04:16:57.715Z,99.69
2016-03-31T04:17:57.701Z,99.99
2016-03-31T04:18:57.689Z,99.88
2016-03-31T04:19:57.691Z,99.69
2016-03-31T04:20:57.693Z,99.99
2016-03-31T04:21:57.681Z,99.98
2016-03-31T04:22:57.684Z,99.98
2016-03-31T04:23:57.671Z,99.99
2016-03-31T04:24:57.705Z,99.6
2016-03-31T04:25:57.745Z,99.99
2016-03-31T04:26:57.815Z,99.99
2016-03-31T04:27:57.839Z,99.88
2016-03-31T04:28:57.894Z,99.6
2016-03-31T04:29:57.954Z,99.99
2016-03-31T04:30:58.006Z,98.93
2016-03-31T04:31:57.981Z,99.41
2016-03-31T04:32:58.018Z,99.99
2016-03-31T04:33:58.024Z,99.69
2016-03-31T04:34:58.042Z,99.69
2016-03-31T04:35:58.067Z,99.69
2016-03-31T04:36:58.060Z,99.98
2016-03-31T04:37:58.054Z,99.88
2016-03-31T04:38:58.078Z,99.12
2016-03-31T04:39:58.071Z,99.02
2016-03-31T04:40:58.076Z,99.99
2016-03-31T04:41:57.926Z,99.41
2016-03-31T04:42:58.070Z,99.22
2016-03-31T04:43:58.075Z,98.65
2016-03-31T04:44:58.080Z,99.6
2016-03-31T04:45:58.084Z,99.41
2016-03-31T04:46:58.087Z,99.79
2016-03-31T04:47:58.077Z,99.79
2016-03-31T04:48:58.095Z,99.22
2016-03-31T04:49:58.099Z,99.22
2016-03-31T04:50:58.118Z,99.5
2016-03-31T04:51:58.074Z,99.5
2016-03-31T04:52:58.077Z,99.5
2016-03-31T04:53:58.096Z,99.41
2016-03-31T04:54:58.083Z,99.41
2016-03-31T04:55:58.086Z,99.41
2016-03-31T04:56:58.136Z,99.41
2016-03-31T04:57:58.139Z,99.6
2016-03-31T04:58:58.078Z,99.6
2016-03-31T04:59:58.081Z,99.31
2016-03-31T05:00:58.100Z,99.69
2016-03-31T05:01:58.102Z,99.79
2016-03-31T05:02:58.325Z,99.74
2016-03-31T05:03:58.092Z,99.79
2016-03-31T05:04:58.111Z,99.55
2016-03-31T05:05:58.083Z,99.36
2016-03-31T05:06:58.086Z,99.31
2016-03-31T05:07:58.103Z,99.99
2016-03-31T05:08:58.075Z,99.26
2016-03-31T05:09:58.108Z,99.99
2016-03-31T05:10:58.080Z,99.22
2016-03-31T05:11:58.083Z,99.22
2016-03-31T05:12:58.085Z,99.31
2016-03-31T05:13:58.088Z,99.41
2016-03-31T05:14:58.107Z,99.55
2016-03-31T05:15:58.077Z,99.79
2016-03-31T05:16:58.081Z,98.97
2016-03-31T05:17:58.099Z,99.36
2016-03-31T05:18:58.085Z,99.5
2016-03-31T05:19:58.089Z,99.55
2016-03-31T05:20:58.076Z,99.55
2016-03-31T05:21:58.079Z,99.07
2016-03-31T05:22:58.081Z,99.55
2016-03-31T05:23:58.084Z,99.41
2016-03-31T05:24:58.087Z,99.64
2016-03-31T05:25:58.090Z,99.45
2016-03-31T05:26:58.077Z,99.41
2016-03-31T05:27:58.095Z,99.5
2016-03-31T05:28:58.081Z,99.45
2016-03-31T05:29:58.085Z,98.55
2016-03-31T05:30:58.072Z,98.65
2016-03-31T05:31:58.089Z,99.07
2016-03-31T05:32:58.077Z,98.46
2016-03-31T05:33:58.080Z,99.02
2016-03-31T05:34:58.082Z,98.55
2016-03-31T05:35:58.085Z,98.93
2016-03-31T05:36:58.088Z,98.46
2016-03-31T05:37:58.074Z,98.27
2016-03-31T05:38:58.094Z,97.5
2016-03-31T05:39:58.080Z,96.7
2016-03-31T05:40:58.099Z,96.03
2016-03-31T05:41:58.067Z,96.03
2016-03-31T05:42:58.104Z,95.94
2016-03-31T05:43:58.121Z,95.17
2016-03-31T05:44:58.074Z,95.56
2016-03-31T05:45:58.078Z,95.17
2016-03-31T05:46:58.080Z,95.27
2016-03-31T05:47:58.083Z,95.36
2016-03-31T05:48:58.101Z,95.17
2016-03-31T05:49:58.074Z,95.08
2016-03-31T05:50:58.091Z,94.79
2016-03-31T05:51:58.078Z,95.17
2016-03-31T05:52:58.097Z,95.17
2016-03-31T05:53:58.099Z,95.17
2016-03-31T05:54:58.087Z,94.32
2016-03-31T05:55:58.090Z,94.22
2016-03-31T05:56:58.092Z,94.7
2016-03-31T05:57:58.095Z,94.7
2016-03-31T05:58:58.097Z,94.13
2016-03-31T05:59:58.084Z,93.84
2016-03-31T06:00:58.117Z,94.6
2016-03-31T06:01:58.090Z,94.08
2016-03-31T06:02:58.108Z,94.84
2016-03-31T06:03:58.095Z,94.18
2016-03-31T06:04:58.114Z,94.46
2016-03-31T06:05:58.116Z,95.32
2016-03-31T06:06:58.103Z,94.74
2016-03-31T06:07:58.106Z,95.22
2016-03-31T06:08:58.108Z,94.46
2016-03-31T06:09:58.095Z,95.12
2016-03-31T06:10:58.098Z,95.03
2016-03-31T06:11:58.101Z,94.56
2016-03-31T06:12:58.103Z,94.65
2016-03-31T06:13:58.106Z,94.37
2016-03-31T06:14:58.109Z,94.18
2016-03-31T06:15:58.111Z,94.65
2016-03-31T06:16:58.130Z,94.46
2016-03-31T06:17:58.102Z,94.51
2016-03-31T06:18:58.088Z,93.79
2016-03-31T06:19:58.091Z,93.55
2016-03-31T06:20:58.093Z,93.46
2016-03-31T06:21:58.112Z,93.46
2016-03-31T06:22:58.115Z,93.23
2016-03-31T06:23:58.102Z,93.55
2016-03-31T06:24:58.104Z,93.55
2016-03-31T06:25:58.123Z,93.84
2016-03-31T06:26:58.110Z,94.27
2016-03-31T06:27:58.098Z,94.84
2016-03-31T06:28:58.115Z,94.32
2016-03-31T06:29:58.103Z,94.08
2016-03-31T06:30:58.106Z,93.55
2016-03-31T06:31:58.108Z,93.46
2016-03-31T06:32:58.111Z,92.89
2016-03-31T06:33:58.097Z,92.99
2016-03-31T06:34:58.117Z,92.99
2016-03-31T06:35:58.103Z,93.27
2016-03-31T06:36:58.105Z,93.55
2016-03-31T06:37:58.125Z,92.6
2016-03-31T06:38:58.127Z,92.22
2016-03-31T06:39:58.114Z,92.03
2016-03-31T06:40:58.117Z,92.41
2016-03-31T06:41:58.119Z,91.46
2016-03-31T06:42:58.122Z,91.65
2016-03-31T06:43:58.124Z,91.84
2016-03-31T06:44:58.127Z,92.03
2016-03-31T06:45:58.114Z,91.99
2016-03-31T06:46:58.148Z,91.99
2016-03-31T06:47:58.152Z,91.51
2016-03-31T06:48:58.138Z,90.46
2016-03-31T06:49:58.140Z,89.79
2016-03-31T06:50:58.128Z,87.17
2016-03-31T06:51:58.146Z,83.21
2016-03-31T06:52:58.132Z,79.77
2016-03-31T06:53:58.136Z,77.76
2016-03-31T06:54:58.154Z,75.42
2016-03-31T06:55:58.141Z,74.69
2016-03-31T06:56:58.160Z,72.49
2016-03-31T06:57:58.162Z,71.67
2016-03-31T06:58:58.149Z,70.36
2016-03-31T06:59:58.167Z,69.6
2016-03-31T07:00:58.170Z,68.49
2016-03-31T07:01:58.173Z,67.72
2016-03-31T07:02:58.191Z,66.38
2016-03-31T07:03:58.179Z,66.28
2016-03-31T07:04:58.181Z,66.96
2016-03-31T07:05:58.183Z,68.68
2016-03-31T07:06:58.187Z,69.02
2016-03-31T07:07:58.225Z,69.41
2016-03-31T07:08:58.212Z,70.33
2016-03-31T07:09:58.199Z,72.14
2016-03-31T07:10:58.217Z,73.07
2016-03-31T07:11:58.236Z,73.63
2016-03-31T07:12:58.238Z,73.92
2016-03-31T07:13:58.225Z,73.92
2016-03-31T07:14:58.244Z,74.17
2016-03-31T07:15:58.246Z,75.6
2016-03-31T07:16:58.250Z,75.32
2016-03-31T07:17:58.268Z,76.08
2016-03-31T07:18:58.270Z,75.22
2016-03-31T07:19:58.274Z,76.08
2016-03-31T07:20:58.260Z,76.04
2016-03-31T07:21:58.293Z,75.76
2016-03-31T07:22:58.281Z,75.42
2016-03-31T07:23:58.300Z,73.35
2016-03-31T07:24:58.302Z,71.53
2016-03-31T07:25:58.289Z,70.52
2016-03-31T07:26:58.307Z,69.7
2016-03-31T07:27:58.310Z,68.84
2016-03-31T07:28:58.328Z,68.26
2016-03-31T07:29:58.315Z,66.28
2016-03-31T07:30:58.350Z,65.81
2016-03-31T07:31:58.320Z,65.45
2016-03-31T07:32:58.339Z,64.02
2016-03-31T07:33:58.342Z,63.1
2016-03-31T07:34:58.361Z,61.5
2016-03-31T07:35:58.363Z,60.93
2016-03-31T07:36:58.381Z,60.25
2016-03-31T07:37:58.384Z,59.13
2016-03-31T07:38:58.402Z,58.3
2016-03-31T07:39:58.389Z,57.72
2016-03-31T07:40:58.392Z,57.43
2016-03-31T07:41:58.394Z,57.06
2016-03-31T07:42:58.257Z,56.51
2016-03-31T07:43:58.431Z,56.79
2016-03-31T07:44:58.450Z,57.92
2016-03-31T07:45:58.436Z,59.33
2016-03-31T07:46:58.471Z,59.9
2016-03-31T07:47:58.457Z,59.8
2016-03-31T07:48:58.461Z,58.75
2016-03-31T07:49:58.479Z,57.92
2016-03-31T07:50:58.482Z,56.67
2016-03-31T07:51:58.500Z,56.12
2016-03-31T07:52:58.502Z,55.57
2016-03-31T07:53:58.521Z,54.8
2016-03-31T07:54:58.523Z,54.9
2016-03-31T07:55:58.510Z,54.8
2016-03-31T07:56:58.545Z,55
2016-03-31T07:57:58.547Z,56.7
2016-03-31T07:58:58.550Z,58.49
2016-03-31T07:59:58.584Z,60
2016-03-31T08:00:58.571Z,61.11
2016-03-31T08:01:58.573Z,60.73
2016-03-31T08:02:58.576Z,60.47
2016-03-31T08:03:58.641Z,60.57
2016-03-31T08:04:58.612Z,59.8
2016-03-31T08:05:58.615Z,58.94
2016-03-31T08:06:58.618Z,57.34
2016-03-31T08:07:58.621Z,56
2016-03-31T08:08:58.639Z,56.02
2016-03-31T08:09:58.658Z,55.93
2016-03-31T08:10:58.645Z,55.47
2016-03-31T08:11:58.664Z,54.04
2016-03-31T08:12:58.681Z,53.94
2016-03-31T08:13:58.700Z,53.75
2016-03-31T08:14:58.686Z,53.49
2016-03-31T08:15:58.705Z,53.49
2016-03-31T08:16:58.707Z,52.91
2016-03-31T08:17:58.727Z,53.3
2016-03-31T08:18:58.729Z,53.87
2016-03-31T08:19:58.732Z,55.29
2016-03-31T08:20:58.734Z,56.34
2016-03-31T08:21:58.768Z,55.07
2016-03-31T08:22:58.755Z,55.74
2016-03-31T08:23:58.773Z,55.74
2016-03-31T08:24:58.776Z,54.88
2016-03-31T08:25:58.793Z,54.8
2016-03-31T08:26:58.796Z,55.96
2016-03-31T08:27:58.815Z,55.77
2016-03-31T08:28:58.817Z,56.79
2016-03-31T08:29:58.821Z,58.2
2016-03-31T08:30:58.839Z,60.19
2016-03-31T08:31:58.857Z,62.74
2016-03-31T08:32:58.844Z,64.72
2016-03-31T08:33:58.862Z,67.18
2016-03-31T08:34:58.881Z,69.92
2016-03-31T08:35:58.884Z,71.22
2016-03-31T08:36:58.902Z,71.8
2016-03-31T08:37:58.905Z,71.89
2016-03-31T08:38:58.908Z,73.1
2016-03-31T08:39:58.925Z,73.77
2016-03-31T08:40:58.945Z,73.77
2016-03-31T08:41:58.916Z,74.02
2016-03-31T08:42:58.950Z,75.45
2016-03-31T08:43:58.953Z,75.64
2016-03-31T08:44:58.955Z,75.54
2016-03-31T08:45:58.958Z,75.54
2016-03-31T08:46:58.961Z,76.31
2016-03-31T08:47:58.963Z,75.26
2016-03-31T08:48:58.981Z,75.54
2016-03-31T08:49:59.000Z,75.39
2016-03-31T08:50:58.986Z,75.74
2016-03-31T08:51:59.004Z,74.34
2016-03-31T08:52:58.991Z,75.1
2016-03-31T08:53:59.026Z,75.3
2016-03-31T08:54:58.997Z,75.3
2016-03-31T08:55:59.015Z,75.49
2016-03-31T08:56:59.034Z,74.63
2016-03-31T08:57:59.021Z,75.49
2016-03-31T08:58:59.024Z,75.39
2016-03-31T08:59:59.026Z,76.16
2016-03-31T09:00:59.045Z,75.49
2016-03-31T09:01:59.048Z,75.3
2016-03-31T09:02:59.051Z,75.01
2016-03-31T09:03:59.068Z,75.1
2016-03-31T09:04:59.070Z,74.73
2016-03-31T09:05:59.059Z,75.01
2016-03-31T09:06:59.076Z,75.71
2016-03-31T09:07:59.078Z,73.52
2016-03-31T09:08:59.081Z,73.9
2016-03-31T09:09:59.084Z,73.14
2016-03-31T09:10:59.087Z,73.8
2016-03-31T09:11:59.089Z,73.52
2016-03-31T09:12:59.108Z,73.52
2016-03-31T09:13:59.111Z,72.94
2016-03-31T09:14:59.113Z,73.61
2016-03-31T09:15:59.100Z,73.23
2016-03-31T09:16:59.103Z,72.88
2016-03-31T09:17:59.216Z,72.79
2016-03-31T09:18:59.141Z,72.02
2016-03-31T09:19:59.127Z,71.64
2016-03-31T09:20:59.130Z,71.36
2016-03-31T09:21:59.133Z,71.16
2016-03-31T09:22:59.151Z,71.07
2016-03-31T09:23:59.138Z,71.55
2016-03-31T09:24:59.171Z,70.78
2016-03-31T09:25:59.160Z,71.16
2016-03-31T09:26:59.177Z,70.78
2016-03-31T09:27:59.180Z,70.59
2016-03-31T09:28:59.183Z,70.97
2016-03-31T09:29:59.185Z,71.07
2016-03-31T09:30:59.188Z,70.97
2016-03-31T09:31:59.190Z,70.53
2016-03-31T09:32:59.053Z,70.24
2016-03-31T09:33:59.196Z,69.38
2016-03-31T09:34:59.059Z,69.09
2016-03-31T09:35:59.217Z,68.52
2016-03-31T09:36:59.204Z,68.23
2016-03-31T09:37:59.223Z,66.99
2016-03-31T09:38:59.225Z,67.27
2016-03-31T09:39:59.243Z,66.89
2016-03-31T09:40:59.246Z,67.85
2016-03-31T09:41:59.249Z,65.94
2016-03-31T09:42:59.236Z,66.54
2016-03-31T09:43:59.254Z,65.68
2016-03-31T09:44:59.257Z,66.16
2016-03-31T09:45:59.276Z,64.82
2016-03-31T09:46:59.262Z,64.63
2016-03-31T09:47:59.327Z,64.53
2016-03-31T09:48:59.267Z,65.3
2016-03-31T09:49:59.269Z,64.43
2016-03-31T09:50:59.288Z,63.86
2016-03-31T09:51:59.291Z,64.25
2016-03-31T09:52:59.294Z,63.8
2016-03-31T09:53:59.313Z,63.96
2016-03-31T09:54:59.316Z,63.89
2016-03-31T09:55:59.318Z,63.13
2016-03-31T09:56:59.321Z,63.13
2016-03-31T09:57:59.339Z,63.13
2016-03-31T09:58:59.326Z,63.42
2016-03-31T09:59:59.329Z,62.46
2016-03-31T10:00:59.346Z,62.84
2016-03-31T10:01:59.334Z,62.84
2016-03-31T10:02:59.227Z,63.06
2016-03-31T10:03:59.355Z,62.87
2016-03-31T10:04:59.358Z,62.01
2016-03-31T10:05:59.376Z,61.82
2016-03-31T10:06:59.378Z,61.24
2016-03-31T10:07:59.412Z,62.1
2016-03-31T10:08:59.384Z,61.82
2016-03-31T10:09:59.403Z,61.34
2016-03-31T10:10:59.390Z,62.23
2016-03-31T10:11:59.408Z,61.46
2016-03-31T10:12:59.425Z,60.7
2016-03-31T10:13:59.444Z,59.93
2016-03-31T10:14:59.431Z,58.3
2016-03-31T10:15:59.434Z,57.95
2016-03-31T10:16:59.437Z,58.52
2016-03-31T10:17:59.439Z,57.08
2016-03-31T10:18:59.458Z,58.52
2016-03-31T10:19:59.445Z,57.46
2016-03-31T10:20:59.463Z,57.28
2016-03-31T10:21:59.482Z,57.37
2016-03-31T10:22:59.484Z,57.01
2016-03-31T10:23:59.487Z,57.4
2016-03-31T10:24:59.489Z,56.82
2016-03-31T10:25:59.524Z,57.59
2016-03-31T10:26:59.495Z,56.82
2016-03-31T10:27:59.497Z,57.5
2016-03-31T10:28:59.516Z,56.53
2016-03-31T10:29:59.534Z,53.75
2016-03-31T10:30:59.521Z,53.66
2016-03-31T10:31:59.524Z,52.98
2016-03-31T10:32:59.527Z,53.66
2016-03-31T10:33:59.545Z,53.56
2016-03-31T10:34:59.579Z,53.85
2016-03-31T10:35:59.565Z,52.98
2016-03-31T10:36:59.412Z,52.91
2016-03-31T10:37:59.587Z,51.18
2016-03-31T10:38:59.574Z,51.18
2016-03-31T10:39:59.577Z,52.05
2016-03-31T10:40:59.595Z,51.95
2016-03-31T10:41:59.614Z,48.97
2016-03-31T10:42:59.600Z,47.36
2016-03-31T10:43:59.635Z,45.83
2016-03-31T10:44:59.637Z,45.06
2016-03-31T10:45:59.734Z,43.33
2016-03-31T10:46:59.642Z,42.37
2016-03-31T10:47:59.661Z,43.23
2016-03-31T10:48:59.664Z,42.66
2016-03-31T10:49:59.666Z,43.52
2016-03-31T10:50:59.684Z,43.43
2016-03-31T10:51:59.672Z,40.64
2016-03-31T10:52:59.675Z,40.45
2016-03-31T10:53:59.692Z,40.76
2016-03-31T10:54:59.711Z,40.76
2016-03-31T10:55:59.713Z,39.89
2016-03-31T10:56:59.716Z,40.76
2016-03-31T10:57:59.735Z,40.95
2016-03-31T10:58:59.722Z,41.33
2016-03-31T10:59:59.741Z,40.28
2016-03-31T11:00:59.743Z,40.85
2016-03-31T11:01:59.746Z,40.95
2016-03-31T11:02:59.764Z,41.05
2016-03-31T11:03:59.766Z,41.14
2016-03-31T11:04:59.785Z,40.56
2016-03-31T11:05:59.788Z,41.14
2016-03-31T11:06:59.806Z,41.33
2016-03-31T11:07:59.793Z,40.66
2016-03-31T11:08:59.811Z,40.18
2016-03-31T11:09:59.814Z,40.08
2016-03-31T11:10:59.817Z,39.61
2016-03-31T11:11:59.820Z,39.61
2016-03-31T11:12:59.837Z,39.7
2016-03-31T11:13:59.840Z,40.76
2016-03-31T11:14:59.859Z,40.47
2016-03-31T11:15:59.846Z,39.79
2016-03-31T11:16:59.895Z,38.16
2016-03-31T11:17:59.882Z,38.35
2016-03-31T11:18:59.870Z,37.77
2016-03-31T11:19:59.903Z,37.97
2016-03-31T11:20:59.890Z,38.35
2016-03-31T11:21:59.909Z,37.12
2016-03-31T11:22:59.927Z,37.02
2016-03-31T11:23:59.914Z,37.12
2016-03-31T11:24:59.917Z,39.72
2016-03-31T11:25:59.936Z,37.6
2016-03-31T11:26:59.953Z,36.95
2016-03-31T11:27:59.956Z,36.85
2016-03-31T11:28:59.958Z,36.66
2016-03-31T11:29:59.977Z,38.1
2016-03-31T11:30:59.979Z,37.24
2016-03-31T11:31:59.841Z,36.85
2016-03-31T11:32:59.985Z,37.34
2016-03-31T11:34:00.003Z,36.56
2016-03-31T11:35:00.022Z,35.7
2016-03-31T11:36:00.024Z,36.18
2016-03-31T11:37:00.026Z,35.31
2016-03-31T11:38:00.029Z,35.79
2016-03-31T11:39:00.063Z,36.85
2016-03-31T11:40:00.066Z,35.5
2016-03-31T11:41:00.069Z,35.7
2016-03-31T11:42:00.071Z,33.67
2016-03-31T11:43:00.074Z,33.29
2016-03-31T11:44:00.108Z,32.9
2016-03-31T11:45:00.095Z,32.73
2016-03-31T11:46:00.129Z,32.92
2016-03-31T11:47:00.117Z,32.06
2016-03-31T11:48:00.119Z,31.67
2016-03-31T11:49:00.137Z,30.61
2016-03-31T11:50:00.155Z,28.7
2016-03-31T11:51:00.142Z,27.83
2016-03-31T11:52:00.177Z,28.13
2016-03-31T11:53:00.180Z,28.13
2016-03-31T11:54:00.183Z,28.51
2016-03-31T11:55:00.216Z,29.57
2016-03-31T11:56:00.203Z,28.42
2016-03-31T11:57:00.205Z,26.97
2016-03-31T11:58:00.208Z,27.64
2016-03-31T11:59:00.227Z,27.37
2016-03-31T12:00:00.213Z,27.37
2016-03-31T12:01:00.233Z,27.85
2016-03-31T12:02:00.266Z,27.56
2016-03-31T12:03:00.253Z,28.72
2016-03-31T12:04:00.272Z,34.4
2016-03-31T12:05:00.291Z,31.22
2016-03-31T12:06:00.277Z,31.41
2016-03-31T12:07:00.280Z,31.7
2016-03-31T12:08:00.313Z,31.41
2016-03-31T12:09:00.301Z,32.76
2016-03-31T12:10:00.318Z,34
2016-03-31T12:11:00.337Z,34.67
2016-03-31T12:12:00.356Z,35.06
2016-03-31T12:13:00.343Z,35.35
2016-03-31T12:14:00.362Z,39.11
2016-03-31T12:15:00.364Z,36.79
2016-03-31T12:16:00.367Z,35.73
2016-03-31T12:17:00.400Z,35.54
2016-03-31T12:18:00.403Z,35.25
2016-03-31T12:19:00.389Z,35.73
2016-03-31T12:20:00.409Z,36.6
2016-03-31T12:21:00.426Z,36.41
2016-03-31T12:22:00.414Z,36.79
2016-03-31T12:23:00.432Z,36.31
2016-03-31T12:24:00.451Z,38.14
2016-03-31T12:25:00.453Z,39.39
2016-03-31T12:26:00.472Z,38.62
2016-03-31T12:27:00.474Z,37.95
2016-03-31T12:28:00.492Z,38.04
2016-03-31T12:29:00.494Z,37.27
2016-03-31T12:30:00.497Z,36.41
2016-03-31T12:31:00.516Z,36.41
2016-03-31T12:32:00.503Z,37.08
2016-03-31T12:33:00.521Z,36.79
2016-03-31T12:34:00.524Z,36.31
2016-03-31T12:35:00.526Z,36.13
2016-03-31T12:36:00.545Z,36.13
2016-03-31T12:37:00.548Z,36.21
2016-03-31T12:38:00.566Z,36.31
2016-03-31T12:39:00.585Z,36.89
2016-03-31T12:40:00.571Z,38.31
2016-03-31T12:41:00.605Z,37.27
2016-03-31T12:42:00.607Z,37.27
2016-03-31T12:43:00.626Z,37.27
2016-03-31T12:44:00.629Z,36.79
2016-03-31T12:45:00.632Z,36.13
2016-03-31T12:46:00.665Z,36.91
2016-03-31T12:47:00.637Z,36.91
2016-03-31T12:48:00.670Z,36.23
2016-03-31T12:49:00.673Z,36.52
2016-03-31T12:50:00.676Z,36.33
2016-03-31T12:51:00.695Z,36.41
2016-03-31T12:52:00.698Z,36.61
2016-03-31T12:53:00.700Z,36.41
2016-03-31T12:54:00.719Z,36.6
2016-03-31T12:55:00.736Z,37.48
2016-03-31T12:56:00.724Z,37.77